Time;durP1;ratioP1;P1;durP2;ratioP2;P2;SDS_P1;SDS_P2;PMS_P1;PMS_P2;Temp;Humidity;BMP_temperature;BMP_pressure;BME280_temperature;BME280_humidity;BME280_pressure;Samples;Min_cycle;Max_cycle;Signal;HPM_P1;HPM_P2
2023/04/03 00:00:45;;;;;;;4.32;2.40;;;;;;;-144.87;100.00;61487.56;5007246;28;20119;-79
2023/04/03 00:03:12;;;;;;;7.93;2.92;;;;;;;-144.87;100.00;61487.56;5026837;28;20033;-79
2023/04/03 00:05:39;;;;;;;7.70;2.95;;;;;;;-144.87;100.00;61487.56;5026923;28;20035;-79
2023/04/03 00:08:07;;;;;;;5.70;2.55;;;;;;;-144.87;100.00;61487.56;5027129;28;20030;-79
2023/04/03 00:10:34;;;;;;;7.15;2.85;;;;;;;-144.87;100.00;61487.56;5025073;28;20025;-79
2023/04/03 00:13:00;;;;;;;6.60;2.85;;;;;;;-144.87;100.00;61487.56;5024852;28;20033;-78
2023/04/03 00:15:27;;;;;;;6.97;2.83;;;;;;;-144.87;100.00;61487.56;5007107;28;20048;-78
2023/04/03 00:17:53;;;;;;;5.38;3.10;;;;;;;-144.87;100.00;61487.56;4994443;28;20541;-79
2023/04/03 00:20:20;;;;;;;5.28;2.50;;;;;;;-144.87;100.00;61487.56;5006290;28;20057;-79
2023/04/03 00:22:46;;;;;;;5.35;2.70;;;;;;;-144.87;100.00;61487.56;5019024;28;20491;-80
2023/04/03 00:25:13;;;;;;;8.82;3.00;;;;;;;-144.87;100.00;61487.56;5006531;28;20104;-80
2023/04/03 00:27:39;;;;;;;6.68;2.50;;;;;;;-144.87;100.00;61487.56;5006310;28;20084;-80
2023/04/03 00:30:07;;;;;;;7.75;3.30;;;;;;;-144.87;100.00;61487.56;5004804;28;20040;-79
2023/04/03 00:32:34;;;;;;;7.47;2.90;;;;;;;-144.87;100.00;61487.56;5019988;28;20494;-80
2023/04/03 00:35:00;;;;;;;3.72;2.47;;;;;;;-144.87;100.00;61487.56;5003316;28;20113;-78
2023/04/03 00:37:27;;;;;;;3.92;2.42;;;;;;;-144.87;100.00;61487.56;5000278;28;20112;-80
2023/04/03 00:39:53;;;;;;;5.93;2.92;;;;;;;-144.87;100.00;61487.56;5004990;28;20044;-79
2023/04/03 00:42:20;;;;;;;4.15;2.58;;;;;;;-144.87;100.00;61487.56;5002762;28;20030;-79
2023/04/03 00:44:47;;;;;;;8.80;3.20;;;;;;;-144.87;100.00;61487.56;5003755;28;20562;-80
2023/04/03 00:47:18;;;;;;;7.35;2.75;;;;;;;-144.87;100.00;61487.56;5005689;28;20040;-79
2023/04/03 00:49:44;;;;;;;8.32;3.47;;;;;;;-144.87;100.00;61487.56;5006949;28;20026;-79
2023/04/03 00:52:15;;;;;;;6.00;2.33;;;;;;;-144.87;100.00;61487.56;4987179;28;20045;-79
2023/04/03 00:54:45;;;;;;;6.13;2.83;;;;;;;-144.87;100.00;61487.56;5003691;28;20109;-78
2023/04/03 00:57:15;;;;;;;9.15;2.75;;;;;;;-144.87;100.00;61487.56;5005179;28;20053;-78
2023/04/03 00:59:51;;;;;;;5.60;2.63;;;;;;;-144.87;100.00;61487.56;4991547;28;20065;-79
2023/04/03 01:02:17;;;;;;;5.75;2.42;;;;;;;-144.87;100.00;61487.56;4991091;28;20522;-80
2023/04/03 01:04:44;;;;;;;6.40;3.00;;;;;;;-144.87;100.00;61487.56;5003256;28;20032;-78
2023/04/03 01:07:21;;;;;;;8.38;2.70;;;;;;;-144.87;100.00;61487.56;4990180;28;20061;-79
2023/04/03 01:09:48;;;;;;;10.00;3.28;;;;;;;-144.87;100.00;61487.56;5005912;28;20029;-79
2023/04/03 01:12:18;;;;;;;4.80;2.70;;;;;;;-144.87;100.00;61487.56;4988854;28;20123;-78
2023/04/03 01:14:51;;;;;;;6.00;3.33;;;;;;;-144.87;100.00;61487.56;5018221;28;20033;-80
2023/04/03 01:17:30;;;;;;;6.60;2.80;;;;;;;-144.87;100.00;61487.56;5004724;28;20037;-80
2023/04/03 01:20:18;;;;;;;5.03;3.08;;;;;;;-144.87;100.00;61487.56;5006644;28;20026;-79
2023/04/03 01:22:47;;;;;;;8.18;3.20;;;;;;;-144.87;100.00;61487.56;5009620;28;20038;-79
2023/04/03 01:25:14;;;;;;;7.40;2.90;;;;;;;-144.87;100.00;61487.56;5009629;28;20120;-80
2023/04/03 01:27:40;;;;;;;6.32;3.33;;;;;;;-144.87;100.00;61487.56;5023473;28;20075;-79
2023/04/03 01:30:07;;;;;;;5.65;2.90;;;;;;;-144.87;100.00;61487.56;5010071;28;20044;-79
2023/04/03 01:32:34;;;;;;;7.28;2.97;;;;;;;-144.87;100.00;61487.56;5007260;28;20038;-79
2023/04/03 01:35:00;;;;;;;7.35;3.70;;;;;;;-144.87;100.00;61487.56;5005046;28;20065;-78
2023/04/03 01:37:27;;;;;;;8.07;2.90;;;;;;;-144.87;100.00;61487.56;5022388;28;20402;-80
2023/04/03 01:39:53;;;;;;;6.60;3.00;;;;;;;-144.87;100.00;61487.56;5008742;28;20087;-79
2023/04/03 01:42:19;;;;;;;6.20;3.10;;;;;;;-144.87;100.00;61487.56;5009426;28;20041;-80
2023/04/03 01:44:47;;;;;;;6.32;3.00;;;;;;;-144.87;100.00;61487.56;4992195;28;20120;-80
2023/04/03 01:47:13;;;;;;;8.40;2.92;;;;;;;-144.87;100.00;61487.56;5009117;28;20053;-80
2023/04/03 01:49:42;;;;;;;7.28;3.30;;;;;;;-144.87;100.00;61487.56;5025543;28;20035;-80
2023/04/03 01:52:09;;;;;;;6.25;3.00;;;;;;;-144.87;100.00;61487.56;5025355;28;20037;-80
2023/04/03 01:54:35;;;;;;;4.78;2.90;;;;;;;-144.87;100.00;61487.56;5022080;28;20087;-80
2023/04/03 01:57:01;;;;;;;10.15;2.85;;;;;;;-144.87;100.00;61487.56;5022313;28;20056;-78
2023/04/03 01:59:28;;;;;;;6.00;3.17;;;;;;;-144.87;100.00;61487.56;5010412;28;20706;-79
2023/04/03 02:01:55;;;;;;;9.57;3.70;;;;;;;-144.87;100.00;61487.56;5010190;28;20091;-80
2023/04/03 02:04:22;;;;;;;6.88;3.15;;;;;;;-144.87;100.00;61487.56;5008943;28;20087;-80
2023/04/03 02:06:48;;;;;;;7.97;3.28;;;;;;;-144.87;100.00;61487.56;5025066;28;20024;-80
2023/04/03 02:09:14;;;;;;;6.72;3.42;;;;;;;-144.87;100.00;61487.56;5026647;28;20050;-79
2023/04/03 02:11:41;;;;;;;8.73;3.33;;;;;;;-144.87;100.00;61487.56;5004309;28;20034;-80
2023/04/03 02:14:07;;;;;;;9.63;3.60;;;;;;;-144.87;100.00;61487.56;5023895;28;20061;-78
2023/04/03 02:16:34;;;;;;;8.35;3.85;;;;;;;-144.87;100.00;61487.56;5008082;28;20030;-78
2023/04/03 02:19:00;;;;;;;8.02;3.33;;;;;;;-144.87;100.00;61487.56;5022493;28;20034;-79
2023/04/03 02:21:27;;;;;;;7.38;3.05;;;;;;;-144.87;100.00;61487.56;5026285;28;20505;-80
2023/04/03 02:23:54;;;;;;;10.52;3.35;;;;;;;-144.87;100.00;61487.56;5025876;28;20108;-80
2023/04/03 02:26:20;;;;;;;10.63;4.57;;;;;;;-144.87;100.00;61487.56;5008360;28;20025;-80
2023/04/03 02:28:47;;;;;;;10.00;3.72;;;;;;;-144.87;100.00;61487.56;5008583;28;20034;-79
2023/04/03 02:31:14;;;;;;;12.73;3.70;;;;;;;-144.87;100.00;61487.56;5008395;28;20057;-79
2023/04/03 02:33:43;;;;;;;14.73;4.93;;;;;;;-144.87;100.00;61487.56;4999974;28;20103;-79
2023/04/03 02:36:11;;;;;;;8.43;3.35;;;;;;;-144.87;100.00;61487.56;5021716;28;20372;-80
2023/04/03 02:38:41;;;;;;;8.90;3.67;;;;;;;-144.87;100.00;61487.56;5009516;28;20038;-78
2023/04/03 02:41:11;;;;;;;6.50;3.53;;;;;;;-144.87;100.00;61487.56;5024892;28;20468;-79
2023/04/03 02:43:38;;;;;;;7.80;3.63;;;;;;;-144.87;100.00;61487.56;5022737;28;20112;-79
2023/04/03 02:46:05;;;;;;;7.90;3.90;;;;;;;-144.87;100.00;61487.56;5012080;28;20041;-80
2023/04/03 02:48:32;;;;;;;11.82;3.67;;;;;;;-144.87;100.00;61487.56;5028003;28;20049;-79
2023/04/03 02:50:58;;;;;;;8.98;3.83;;;;;;;-144.87;100.00;61487.56;5004161;28;20025;-80
2023/04/03 02:53:25;;;;;;;9.48;3.97;;;;;;;-144.87;100.00;61487.56;5028063;28;20033;-79
2023/04/03 02:55:51;;;;;;;9.15;3.72;;;;;;;-144.87;100.00;61487.56;5019050;28;20045;-79
2023/04/03 02:58:18;;;;;;;9.40;3.80;;;;;;;-144.87;100.00;61487.56;5000052;28;20052;-79
2023/04/03 03:00:44;;;;;;;8.20;3.80;;;;;;;-144.87;100.00;61487.56;5022704;28;20037;-80
2023/04/03 03:03:11;;;;;;;7.45;3.67;;;;;;;-144.87;100.00;61487.56;5023800;28;20568;-79
2023/04/03 03:05:37;;;;;;;9.63;3.80;;;;;;;-144.87;100.00;61487.56;5009389;28;20038;-80
2023/04/03 03:08:03;;;;;;;9.98;3.95;;;;;;;-144.87;100.00;61487.56;5010960;28;20044;-80
2023/04/03 03:10:30;;;;;;;8.15;4.03;;;;;;;-144.87;100.00;61487.56;5025692;28;20073;-79
2023/04/03 03:12:56;;;;;;;12.40;4.20;;;;;;;-144.87;100.00;61487.56;5028964;28;20112;-79
2023/04/03 03:15:23;;;;;;;10.00;4.57;;;;;;;-144.87;100.00;61487.56;5011498;28;20084;-80
2023/04/03 03:17:49;;;;;;;11.18;4.50;;;;;;;-144.87;100.00;61487.56;5007795;28;20037;-79
2023/04/03 03:20:17;;;;;;;9.07;4.60;;;;;;;-144.87;100.00;61487.56;5009034;28;20061;-80
2023/04/03 03:22:44;;;;;;;11.60;4.47;;;;;;;-144.87;100.00;61487.56;5010978;28;20045;-80
2023/04/03 03:25:10;;;;;;;8.85;4.47;;;;;;;-144.87;100.00;61487.56;5026880;28;20029;-79
2023/04/03 03:27:37;;;;;;;9.43;4.68;;;;;;;-144.87;100.00;61487.56;5027797;28;20037;-79
2023/04/03 03:30:04;;;;;;;14.55;4.95;;;;;;;-144.87;100.00;61487.56;5011393;28;20025;-80
2023/04/03 03:32:31;;;;;;;10.95;5.00;;;;;;;-144.87;100.00;61487.56;5010714;28;20490;-80
2023/04/03 03:34:57;;;;;;;10.90;5.53;;;;;;;-144.87;100.00;61487.56;5010028;28;20025;-80
2023/04/03 03:37:23;;;;;;;11.80;4.70;;;;;;;-144.87;100.00;61487.56;5027057;28;20124;-80
2023/04/03 03:39:50;;;;;;;9.18;4.68;;;;;;;-144.87;100.00;61487.56;5026562;28;20104;-80
2023/04/03 03:42:16;;;;;;;9.90;5.20;;;;;;;-144.87;100.00;61487.56;5008674;28;20033;-80
2023/04/03 03:44:46;;;;;;;11.38;5.45;;;;;;;-144.87;100.00;61487.56;5008044;28;20140;-80
2023/04/03 03:47:13;;;;;;;12.27;5.00;;;;;;;-144.87;100.00;61487.56;5024860;28;20040;-79
2023/04/03 03:49:40;;;;;;;12.18;5.00;;;;;;;-144.87;100.00;61487.56;5026391;28;20124;-79
2023/04/03 03:52:10;;;;;;;11.70;5.40;;;;;;;-144.87;100.00;61487.56;4992579;28;20115;-80
2023/04/03 03:54:37;;;;;;;13.88;5.35;;;;;;;-144.87;100.00;61487.56;5025680;28;20029;-80
2023/04/03 03:57:04;;;;;;;12.82;5.53;;;;;;;-144.87;100.00;61487.56;5016052;28;20109;-80
2023/04/03 03:59:30;;;;;;;13.95;6.10;;;;;;;-144.87;100.00;61487.56;5006163;28;20044;-80
2023/04/03 04:01:57;;;;;;;12.52;5.50;;;;;;;-144.87;100.00;61487.56;5009549;28;20048;-79
2023/04/03 04:04:23;;;;;;;17.83;6.35;;;;;;;-144.87;100.00;61487.56;5012054;28;20037;-88
2023/04/03 04:06:50;;;;;;;12.55;5.68;;;;;;;-144.87;100.00;61487.56;5006879;28;20076;-87
2023/04/03 04:09:36;;;;;;;20.13;6.30;;;;;;;-144.87;100.00;61487.56;5014518;28;20038;-89
2023/04/03 04:12:04;;;;;;;11.90;5.28;;;;;;;-144.87;100.00;61487.56;5022470;28;20484;-88
2023/04/03 04:14:32;;;;;;;12.43;6.53;;;;;;;-144.87;100.00;61487.56;5038953;28;21579;-88
2023/04/03 04:16:59;;;;;;;15.07;5.78;;;;;;;-144.87;100.00;61487.56;5009653;28;20113;-89
2023/04/03 04:19:27;;;;;;;11.57;5.68;;;;;;;-144.87;100.00;61487.56;4994849;28;20136;-87
2023/04/03 04:21:54;;;;;;;21.48;6.82;;;;;;;-144.87;100.00;61487.56;5035998;28;20037;-88
2023/04/03 04:24:22;;;;;;;13.05;6.55;;;;;;;-144.87;100.00;61487.56;5013904;28;20124;-88
2023/04/03 04:26:51;;;;;;;9.05;4.90;;;;;;;-144.87;100.00;61487.56;5010082;28;20037;-88
2023/04/03 04:29:18;;;;;;;21.45;6.78;;;;;;;-144.87;100.00;61487.56;5010846;28;20030;-89
2023/04/03 04:31:47;;;;;;;25.20;8.55;;;;;;;-144.87;100.00;61487.56;4998554;28;20029;-86
2023/04/03 04:34:15;;;;;;;12.23;6.28;;;;;;;-144.87;100.00;61487.56;5021121;28;20063;-87
2023/04/03 04:36:43;;;;;;;18.90;7.38;;;;;;;-144.87;100.00;61487.56;5013889;28;20029;-89
2023/04/03 04:39:10;;;;;;;13.32;6.90;;;;;;;-144.87;100.00;61487.56;5030666;28;20124;-87
2023/04/03 04:41:37;;;;;;;15.70;6.95;;;;;;;-144.87;100.00;61487.56;5031706;28;20092;-87
2023/04/03 04:44:04;;;;;;;14.90;6.88;;;;;;;-144.87;100.00;61487.56;5014633;28;20036;-87
2023/04/03 04:46:32;;;;;;;13.00;6.72;;;;;;;-144.87;100.00;61487.56;4998338;28;20106;-87
2023/04/03 04:49:18;;;;;;;14.73;7.15;;;;;;;-144.87;100.00;61487.56;5003757;28;20042;-87
2023/04/03 04:51:44;;;;;;;19.90;6.75;;;;;;;-144.87;100.00;61487.56;5016204;28;20021;-87
2023/04/03 04:54:12;;;;;;;23.67;7.05;;;;;;;-144.87;100.00;61487.56;5016970;28;20391;-87
2023/04/03 04:56:41;;;;;;;15.55;6.97;;;;;;;-144.87;100.00;61487.56;4998509;28;20030;-85
2023/04/03 04:59:08;;;;;;;21.02;7.18;;;;;;;-144.87;100.00;61487.56;5008293;28;20029;-87
2023/04/03 05:01:35;;;;;;;18.48;7.72;;;;;;;-144.87;100.00;61487.56;5013001;28;20029;-86
2023/04/03 05:04:14;;;;;;;21.67;7.97;;;;;;;-144.87;100.00;61487.56;4995648;28;20513;-88
2023/04/03 05:06:43;;;;;;;;;;;;;;;-144.87;100.00;61487.56;5013784;28;20041;-88
2023/04/03 05:09:14;;;;;;;15.23;7.07;;;;;;;-144.87;100.00;61487.56;5009025;28;20000;-89
2023/04/03 05:11:42;;;;;;;22.35;7.28;;;;;;;-144.87;100.00;61487.56;5022360;28;20092;-89
2023/04/03 05:14:10;;;;;;;15.68;7.32;;;;;;;-144.87;100.00;61487.56;5013133;28;20173;-89
2023/04/03 05:16:36;;;;;;;22.10;7.90;;;;;;;-144.87;100.00;61487.56;4996334;28;21087;-88
2023/04/03 05:19:03;;;;;;;15.10;6.85;;;;;;;-144.87;100.00;61487.56;5031522;28;20064;-87
2023/04/03 05:21:32;;;;;;;15.90;6.82;;;;;;;-144.87;100.00;61487.56;5007450;28;20041;-88
2023/04/03 05:24:02;;;;;;;18.08;8.07;;;;;;;-144.87;100.00;61487.56;5013561;28;20033;-88
2023/04/03 05:26:31;;;;;;;13.32;7.05;;;;;;;-144.87;100.00;61487.56;5006629;28;20351;-89
2023/04/03 05:28:59;;;;;;;17.88;8.35;;;;;;;-144.87;100.00;61487.56;5031760;28;20026;-87
2023/04/03 05:31:25;;;;;;;12.30;7.00;;;;;;;-144.87;100.00;61487.56;5025426;28;20043;-87
2023/04/03 05:33:52;;;;;;;27.30;7.75;;;;;;;-144.87;100.00;61487.56;5030738;28;20056;-89
2023/04/03 05:36:18;;;;;;;16.92;8.30;;;;;;;-144.87;100.00;61487.56;5016128;28;20055;-88
2023/04/03 05:38:49;;;;;;;11.00;5.43;;;;;;;-144.87;100.00;61487.56;5013734;28;20091;-88
2023/04/03 05:41:16;;;;;;;26.63;9.00;;;;;;;-144.87;100.00;61487.56;5011895;28;20041;-88
2023/04/03 05:43:44;;;;;;;17.25;6.45;;;;;;;-144.87;100.00;61487.56;5026434;28;20453;-88
2023/04/03 05:46:16;;;;;;;14.05;6.25;;;;;;;-144.87;100.00;61487.56;5006185;28;20042;-88
2023/04/03 05:48:45;;;;;;;14.13;6.10;;;;;;;-144.87;100.00;61487.56;5011283;28;20116;-90
2023/04/03 05:51:19;;;;;;;14.80;6.18;;;;;;;-144.87;100.00;61487.56;5024507;28;20034;-87
2023/04/03 05:53:51;;;;;;;11.90;5.55;;;;;;;-144.87;100.00;61487.56;4998067;28;20071;-89
2023/04/03 05:56:18;;;;;;;10.70;5.40;;;;;;;-144.87;100.00;61487.56;4998173;28;20025;-88
2023/04/03 05:58:44;;;;;;;16.60;5.32;;;;;;;-144.87;100.00;61487.56;5009059;28;20033;-88
2023/04/03 06:01:11;;;;;;;12.40;5.72;;;;;;;-144.87;100.00;61487.56;5027382;28;22279;-87
2023/04/03 06:03:39;;;;;;;9.32;5.03;;;;;;;-144.87;100.00;61487.56;5017764;28;20044;-88
2023/04/03 06:06:07;;;;;;;18.00;5.70;;;;;;;-144.87;100.00;61487.56;5012861;28;20064;-89
2023/04/03 06:08:34;;;;;;;12.27;4.82;;;;;;;-144.87;100.00;61487.56;5031641;28;20037;-89
2023/04/03 06:11:02;;;;;;;12.25;5.07;;;;;;;-144.87;100.00;61487.56;5012919;28;20105;-88
2023/04/03 06:13:29;;;;;;;11.02;4.45;;;;;;;-144.87;100.00;61487.56;5021954;28;20034;-88
2023/04/03 06:15:56;;;;;;;7.78;4.10;;;;;;;-144.87;100.00;61487.56;5006010;28;20068;-88
2023/04/03 06:18:23;;;;;;;13.00;4.60;;;;;;;-144.87;100.00;61487.56;5025088;28;20026;-89
2023/04/03 06:20:50;;;;;;;8.80;4.20;;;;;;;-144.87;100.00;61487.56;5015762;28;20137;-91
2023/04/03 06:23:16;;;;;;;9.45;4.03;;;;;;;-144.87;100.00;61487.56;5000097;28;20038;-91
2023/04/03 06:25:45;;;;;;;8.73;3.50;;;;;;;-144.87;100.00;61487.56;4983977;28;20037;-91
2023/04/03 06:28:15;;;;;;;10.40;4.10;;;;;;;-144.87;100.00;61487.56;5015088;28;20034;-89
2023/04/03 06:30:41;;;;;;;7.93;3.50;;;;;;;-144.87;100.00;61487.56;5027304;28;20084;-89
2023/04/03 06:33:11;;;;;;;12.55;4.60;;;;;;;-144.87;100.00;61487.56;5014675;28;20040;-91
2023/04/03 06:35:38;;;;;;;10.27;3.63;;;;;;;-144.87;100.00;61487.56;5015535;28;20390;-90
2023/04/03 06:38:09;;;;;;;8.00;3.97;;;;;;;-144.87;100.00;61487.56;5000755;28;20257;-88
2023/04/03 06:40:35;;;;;;;11.15;3.90;;;;;;;-144.87;100.00;61487.56;5012585;28;20120;-91
2023/04/03 06:43:02;;;;;;;14.70;3.88;;;;;;;-144.87;100.00;61487.56;5001033;28;20487;-89
2023/04/03 06:45:48;;;;;;;10.10;3.55;;;;;;;-144.87;100.00;61487.56;5016726;28;20093;-89
2023/04/03 06:48:15;;;;;;;9.20;3.47;;;;;;;-144.87;100.00;61487.56;5017959;28;20048;-89
2023/04/03 06:50:41;;;;;;;10.40;4.18;;;;;;;-144.87;100.00;61487.56;5019835;28;20018;-86
2023/04/03 06:53:09;;;;;;;13.18;4.22;;;;;;;-144.87;100.00;61487.56;5019068;28;20514;-91
2023/04/03 06:55:35;;;;;;;12.43;3.70;;;;;;;-144.87;100.00;61487.56;5019210;28;20026;-85
2023/04/03 06:58:03;;;;;;;7.88;3.45;;;;;;;-144.87;100.00;61487.56;5018425;28;20034;-89
2023/04/03 07:01:06;;;;;;;8.48;3.85;;;;;;;-144.87;100.00;61487.56;5021124;28;20053;-89
2023/04/03 07:03:33;;;;;;;11.27;3.72;;;;;;;-144.87;100.00;61487.56;5017697;28;20040;-88
2023/04/03 07:05:59;;;;;;;15.15;3.60;;;;;;;-144.87;100.00;61487.56;5016497;28;20048;-88
2023/04/03 07:08:26;;;;;;;12.88;3.55;;;;;;;-144.87;100.00;61487.56;5016857;28;20037;-86
2023/04/03 07:10:52;;;;;;;7.15;3.15;;;;;;;-144.87;100.00;61487.56;5016171;28;20034;-84
2023/04/03 07:13:18;;;;;;;12.82;3.40;;;;;;;-144.87;100.00;61487.56;5018060;28;20026;-85
2023/04/03 07:15:45;;;;;;;12.40;4.07;;;;;;;-144.87;100.00;61487.56;5017081;28;20034;-88
2023/04/03 07:18:11;;;;;;;7.05;3.80;;;;;;;-144.87;100.00;61487.56;5015968;28;20026;-85
2023/04/03 07:20:38;;;;;;;6.68;3.25;;;;;;;-144.87;100.00;61487.56;5015598;28;20057;-89
2023/04/03 07:23:04;;;;;;;10.07;3.92;;;;;;;-144.87;100.00;61487.56;5008470;28;20060;-87
2023/04/03 07:25:31;;;;;;;24.60;3.83;;;;;;;-144.87;100.00;61487.56;5014976;28;20091;-90
2023/04/03 07:27:58;;;;;;;7.53;3.13;;;;;;;-144.87;100.00;61487.56;5017154;28;20494;-88
2023/04/03 07:30:25;;;;;;;5.70;2.63;;;;;;;-144.87;100.00;61487.56;5026502;28;20041;-89
2023/04/03 07:32:52;;;;;;;7.20;3.70;;;;;;;-144.87;100.00;61487.56;5014499;28;20034;-89
2023/04/03 07:35:37;;;;;;;9.40;3.90;;;;;;;-144.87;100.00;61487.56;5031272;28;20410;-90
2023/04/03 07:38:04;;;;;;;9.85;3.42;;;;;;;-144.87;100.00;61487.56;5006431;28;20038;-91
2023/04/03 07:40:30;;;;;;;11.32;3.78;;;;;;;-144.87;100.00;61487.56;5013384;28;20454;-85
2023/04/03 07:42:57;;;;;;;7.07;3.38;;;;;;;-144.87;100.00;61487.56;5013431;28;20120;-85
2023/04/03 07:45:26;;;;;;;5.05;2.90;;;;;;;-144.87;100.00;61487.56;5007014;28;20098;-91
2023/04/03 07:47:52;;;;;;;9.65;3.15;;;;;;;-144.87;100.00;61487.56;5012697;28;20033;-88
2023/04/03 07:50:19;;;;;;;5.25;2.65;;;;;;;-144.87;100.00;61487.56;5014403;28;20038;-85
2023/04/03 07:52:46;;;;;;;11.52;4.03;;;;;;;-144.87;100.00;61487.56;5012203;28;20052;-84
2023/04/03 07:55:12;;;;;;;12.43;4.28;;;;;;;-144.87;100.00;61487.56;5014060;28;20057;-86
2023/04/03 07:57:40;;;;;;;10.57;3.28;;;;;;;-144.87;100.00;61487.56;5012034;28;20117;-87
2023/04/03 08:00:07;;;;;;;6.72;3.33;;;;;;;-144.87;100.00;61487.56;5013687;28;20034;-87
2023/04/03 08:02:58;;;;;;;6.63;2.75;;;;;;;-144.87;100.00;61487.56;5003579;28;20574;-91
2023/04/03 08:05:25;;;;;;;9.35;2.88;;;;;;;-144.87;100.00;61487.56;5013022;28;20379;-88
2023/04/03 08:07:51;;;;;;;5.28;2.67;;;;;;;-144.87;100.00;61487.56;5014557;28;20095;-87
2023/04/03 08:10:18;;;;;;;7.35;2.40;;;;;;;-144.87;100.00;61487.56;5003827;28;20044;-89
2023/04/03 08:12:49;;;;;;;6.75;2.53;;;;;;;-144.87;100.00;61487.56;5020681;28;20037;-87
2023/04/03 08:15:16;;;;;;;11.10;3.20;;;;;;;-144.87;100.00;61487.56;5006729;28;20073;-91
2023/04/03 08:17:42;;;;;;;4.93;3.00;;;;;;;-144.87;100.00;61487.56;5019404;28;20455;-85
2023/04/03 08:20:10;;;;;;;10.95;2.50;;;;;;;-144.87;100.00;61487.56;5014358;28;20030;-86
2023/04/03 08:22:37;;;;;;;11.35;2.70;;;;;;;-144.87;100.00;61487.56;5031815;28;20041;-90
2023/04/03 08:25:03;;;;;;;8.38;2.75;;;;;;;-144.87;100.00;61487.56;5030794;28;20040;-85
2023/04/03 08:27:29;;;;;;;12.38;2.67;;;;;;;-144.87;100.00;61487.56;5028476;28;20048;-86
2023/04/03 08:29:56;;;;;;;6.43;1.83;;;;;;;-144.87;100.00;61487.56;5031854;28;20033;-86
2023/04/03 08:35:51;;;;;;;9.00;2.38;;;;;;;-144.87;100.00;61487.56;5031939;28;20045;-89
2023/04/03 08:38:17;;;;;;;6.60;2.42;;;;;;;-144.87;100.00;61487.56;5001081;28;20044;-87
2023/04/03 08:40:44;;;;;;;10.50;2.28;;;;;;;-144.87;100.00;61487.56;5032261;28;20037;-89
2023/04/03 08:43:16;;;;;;;3.75;2.00;;;;;;;-144.87;100.00;61487.56;5019429;28;20045;-84
2023/04/03 08:45:55;;;;;;;8.60;2.25;;;;;;;-144.87;100.00;61487.56;5031721;28;20470;-85
2023/04/03 08:48:24;;;;;;;5.95;1.98;;;;;;;-144.87;100.00;61487.56;5008352;28;20033;-86
2023/04/03 08:50:57;;;;;;;5.38;2.20;;;;;;;-144.87;100.00;61487.56;5033008;28;20033;-85
2023/04/03 08:53:28;;;;;;;6.72;2.03;;;;;;;-144.87;100.00;61487.56;4997838;28;20440;-85
2023/04/03 08:55:55;;;;;;;7.20;1.65;;;;;;;-144.87;100.00;61487.56;5013272;28;20057;-85
2023/04/03 08:58:25;;;;;;;5.25;1.80;;;;;;;-144.87;100.00;61487.56;5031594;28;20037;-87
2023/04/03 09:01:05;;;;;;;3.08;1.55;;;;;;;-144.87;100.00;61487.56;5029107;28;20036;-86
2023/04/03 09:03:35;;;;;;;4.57;1.70;;;;;;;-144.87;100.00;61487.56;5025147;28;20029;-85
2023/04/03 09:06:13;;;;;;;7.28;1.70;;;;;;;-144.87;100.00;61487.56;5030737;28;20095;-88
2023/04/03 09:08:45;;;;;;;5.40;1.60;;;;;;;-144.87;100.00;61487.56;5027928;28;20037;-89
2023/04/03 09:11:36;;;;;;;3.47;1.63;;;;;;;-144.87;100.00;61487.56;5031330;28;20502;-86
2023/04/03 09:14:35;;;;;;;4.68;1.25;;;;;;;-144.87;100.00;61487.56;5031363;28;20510;-89
2023/04/03 09:17:30;;;;;;;2.85;1.40;;;;;;;-144.87;100.00;61487.56;5033858;28;20036;-86
2023/04/03 09:20:16;;;;;;;4.43;1.52;;;;;;;-144.87;100.00;61487.56;5026029;28;20033;-86
2023/04/03 09:22:44;;;;;;;2.92;1.40;;;;;;;-144.87;100.00;61487.56;4999970;28;20098;-83
2023/04/03 09:25:25;;;;;;;2.75;1.40;;;;;;;-144.87;100.00;61487.56;5013058;28;20044;-84
2023/04/03 09:27:53;;;;;;;2.90;1.35;;;;;;;-144.87;100.00;61487.56;5025524;28;20064;-85
2023/04/03 09:30:24;;;;;;;4.22;1.55;;;;;;;-144.87;100.00;61487.56;5030373;28;20029;-84
2023/04/03 09:32:53;;;;;;;3.20;1.40;;;;;;;-144.87;100.00;61487.56;5004745;28;20022;-83
2023/04/03 09:35:31;;;;;;;6.22;1.33;;;;;;;-144.87;100.00;61487.56;5029861;28;20042;-84
2023/04/03 09:38:01;;;;;;;2.17;1.05;;;;;;;-144.87;100.00;61487.56;5030515;28;20479;-85
2023/04/03 09:40:32;;;;;;;2.67;1.40;;;;;;;-144.87;100.00;61487.56;5030806;28;20037;-86
2023/04/03 09:43:02;;;;;;;3.80;1.27;;;;;;;-144.87;100.00;61487.56;5029914;28;20159;-83
2023/04/03 09:45:32;;;;;;;4.03;1.10;;;;;;;-144.87;100.00;61487.56;5029514;28;20458;-83
2023/04/03 09:48:08;;;;;;;5.78;1.58;;;;;;;-144.87;100.00;61487.56;5030885;28;20029;-84
2023/04/03 09:50:35;;;;;;;3.22;1.27;;;;;;;-144.87;100.00;61487.56;5041715;28;20051;-82
2023/04/03 09:53:07;;;;;;;2.92;1.10;;;;;;;-144.87;100.00;61487.56;5001820;28;20037;-81
2023/04/03 09:55:42;;;;;;;3.25;1.17;;;;;;;-144.87;100.00;61487.56;5016380;28;20025;-86
2023/04/03 09:58:23;;;;;;;3.45;1.70;;;;;;;-144.87;100.00;61487.56;5034338;28;20055;-83
2023/04/03 10:00:54;;;;;;;;;;;;;;;-144.87;100.00;61487.56;5000522;28;20095;-83
2023/04/03 10:03:35;;;;;;;6.10;0.90;;;;;;;-144.87;100.00;61487.56;5033553;28;20287;-84
2023/04/03 10:06:03;;;;;;;2.67;1.08;;;;;;;-144.87;100.00;61487.56;5033172;28;20097;-83
2023/04/03 10:08:34;;;;;;;7.95;1.00;;;;;;;-144.87;100.00;61487.56;5033751;28;20036;-87
2023/04/03 10:11:26;;;;;;;2.50;1.15;;;;;;;-144.87;100.00;61487.56;5034060;28;20021;-83
2023/04/03 10:13:59;;;;;;;1.88;0.98;;;;;;;-144.87;100.00;61487.56;5031593;28;20037;-84
2023/04/03 10:16:47;;;;;;;2.28;1.10;;;;;;;-144.87;100.00;61487.56;5036902;28;20033;-86
2023/04/03 10:19:39;;;;;;;2.08;0.90;;;;;;;-144.87;100.00;61487.56;5003228;28;20344;-84
2023/04/03 10:22:14;;;;;;;2.13;0.90;;;;;;;-144.87;100.00;61487.56;5029409;28;20121;-83
2023/04/03 10:24:47;;;;;;;2.40;0.98;;;;;;;-144.87;100.00;61487.56;5033325;28;20033;-85
2023/04/03 10:27:27;;;;;;;1.77;1.00;;;;;;;-144.87;100.00;61487.56;5029114;28;20494;-87
2023/04/03 10:30:15;;;;;;;2.15;1.00;;;;;;;-144.87;100.00;61487.56;5029145;28;20025;-85
2023/04/03 10:33:18;;;;;;;2.50;0.95;;;;;;;-144.87;100.00;61487.56;5015359;28;20367;-83
2023/04/03 10:36:20;;;;;;;3.15;1.02;;;;;;;-144.87;100.00;61487.56;5020269;28;20041;-86
2023/04/03 10:39:05;;;;;;;2.83;1.00;;;;;;;-144.87;100.00;61487.56;5021829;28;20052;-87
2023/04/03 10:41:59;;;;;;;2.67;1.15;;;;;;;-144.87;100.00;61487.56;5032559;28;20111;-83
2023/04/03 10:44:28;;;;;;;2.35;1.08;;;;;;;-144.87;100.00;61487.56;5033230;28;20037;-82
2023/04/03 10:47:44;;;;;;;1.70;0.93;;;;;;;-144.87;100.00;61487.56;5031946;28;20431;-83
2023/04/03 10:50:30;;;;;;;1.20;0.90;;;;;;;-144.87;100.00;61487.56;4973315;28;20038;-83
2023/04/03 10:53:26;;;;;;;4.38;1.30;;;;;;;-144.87;100.00;61487.56;5032876;28;20033;-83
2023/04/03 10:56:11;;;;;;;3.05;1.00;;;;;;;-144.87;100.00;61487.56;5032081;28;20038;-85
2023/04/03 10:58:44;;;;;;;3.25;1.08;;;;;;;-144.87;100.00;61487.56;5029096;28;20091;-87
2023/04/03 11:01:21;;;;;;;1.48;0.88;;;;;;;-144.87;100.00;61487.56;5029432;28;20490;-86
2023/04/03 11:03:52;;;;;;;1.98;0.82;;;;;;;-144.87;100.00;61487.56;5018193;28;20037;-91
2023/04/03 11:06:19;;;;;;;;;;;;;;;-144.87;100.00;61487.56;5018594;28;20049;-88
2023/04/03 11:08:58;;;;;;;2.22;0.90;;;;;;;-144.87;100.00;61487.56;5016576;28;19913;-86
2023/04/03 11:11:35;;;;;;;3.15;1.00;;;;;;;-144.87;100.00;61487.56;5036398;28;20113;-90
2023/04/03 11:14:27;;;;;;;3.05;1.20;;;;;;;-144.87;100.00;61487.56;5022212;28;20029;-91
2023/04/03 11:17:21;;;;;;;1.90;0.80;;;;;;;-144.87;100.00;61487.56;5022812;28;20056;-84
2023/04/03 11:19:56;;;;;;;3.20;0.90;;;;;;;-144.87;100.00;61487.56;5031296;28;20494;-86
2023/04/03 11:22:26;;;;;;;3.22;1.27;;;;;;;-144.87;100.00;61487.56;5007171;28;20416;-89
2023/04/03 11:25:11;;;;;;;2.72;1.10;;;;;;;-144.87;100.00;61487.56;5032149;28;20045;-85